Time;durP1;ratioP1;P1;durP2;ratioP2;P2;SDS_P1;SDS_P2;PMS_P1;PMS_P2;Temp;Humidity;BMP_temperature;BMP_pressure;BME280_temperature;BME280_humidity;BME280_pressure;Samples;Min_cycle;Max_cycle;Signal;HPM_P1;HPM_P2
2023/08/18 00:00:28;;;;;;;5.10;3.20;;;19.40;99.90;;;;;;4882593;29;20443;-84
2023/08/18 00:02:54;;;;;;;4.50;3.20;;;19.40;99.90;;;;;;4882957;29;20893;-84
2023/08/18 00:05:19;;;;;;;4.90;2.77;;;19.50;99.90;;;;;;4882442;29;20411;-84
2023/08/18 00:07:45;;;;;;;6.60;3.20;;;19.10;99.90;;;;;;4885048;29;20418;-84
2023/08/18 00:10:11;;;;;;;6.83;3.50;;;22.30;99.90;;;;;;4900912;29;20406;-84
2023/08/18 00:12:36;;;;;;;6.10;3.50;;;19.50;99.90;;;;;;4900818;29;20497;-84
2023/08/18 00:15:02;;;;;;;6.65;3.30;;;21.50;99.90;;;;;;4901418;29;20387;-84
2023/08/18 00:17:27;;;;;;;6.20;3.40;;;19.60;99.90;;;;;;4898054;29;20413;-84
2023/08/18 00:19:53;;;;;;;5.13;3.07;;;19.00;99.90;;;;;;4899032;29;20395;-83
2023/08/18 00:22:19;;;;;;;5.32;3.20;;;18.90;99.90;;;;;;4901540;29;20479;-84
2023/08/18 00:24:44;;;;;;;5.10;3.10;;;19.10;99.90;;;;;;4901161;29;20953;-83
2023/08/18 00:27:10;;;;;;;5.63;3.20;;;19.40;99.90;;;;;;4895685;29;20409;-84
2023/08/18 00:29:37;;;;;;;3.88;3.03;;;21.20;99.90;;;;;;4883964;29;20408;-84
2023/08/18 00:32:02;;;;;;;5.43;3.00;;;19.20;99.90;;;;;;4882851;29;20582;-84
2023/08/18 00:34:28;;;;;;;4.57;2.90;;;19.00;99.90;;;;;;4880091;29;20439;-84
2023/08/18 00:36:54;;;;;;;4.97;3.00;;;18.50;99.90;;;;;;4881303;29;20400;-84
2023/08/18 00:39:19;;;;;;;4.60;3.00;;;18.60;99.90;;;;;;4881836;29;20415;-84
2023/08/18 00:41:45;;;;;;;3.80;3.33;;;18.70;99.90;;;;;;4880355;29;20401;-84
2023/08/18 00:44:10;;;;;;;7.07;2.92;;;19.00;99.90;;;;;;4880273;29;20389;-84
2023/08/18 00:46:36;;;;;;;5.27;3.30;;;19.30;99.90;;;;;;4886382;29;20414;-84
2023/08/18 00:49:04;;;;;;;4.43;3.50;;;19.30;99.90;;;;;;4885184;29;20436;-84
2023/08/18 00:51:32;;;;;;;6.20;3.10;;;18.70;99.90;;;;;;4880184;29;20428;-84
2023/08/18 00:53:58;;;;;;;7.60;3.30;;;19.60;99.90;;;;;;4881835;29;20408;-84
2023/08/18 00:56:24;;;;;;;7.47;3.00;;;18.30;99.90;;;;;;4880079;29;20407;-85
2023/08/18 00:58:50;;;;;;;4.13;3.17;;;18.10;99.90;;;;;;4889672;29;20419;-84
2023/08/18 01:01:15;;;;;;;5.05;3.60;;;18.70;99.90;;;;;;4900353;29;20410;-85
2023/08/18 01:03:41;;;;;;;8.18;3.58;;;19.20;99.90;;;;;;4898047;29;21074;-84
2023/08/18 01:06:06;;;;;;;7.00;3.00;;;20.80;99.90;;;;;;4901869;29;20410;-84
2023/08/18 01:08:32;;;;;;;4.53;3.30;;;19.50;99.90;;;;;;4901944;29;20472;-84
2023/08/18 01:11:10;;;;;;;5.15;3.00;;;18.70;99.90;;;;;;4898903;29;20835;-84
2023/08/18 01:13:50;;;;;;;4.80;2.90;;;18.70;99.90;;;;;;4900181;29;20414;-84
2023/08/18 01:16:23;;;;;;;4.63;3.42;;;18.70;99.90;;;;;;4899151;29;20399;-83
2023/08/18 01:18:50;;;;;;;4.80;2.90;;;20.20;99.90;;;;;;4898483;29;20447;-83
2023/08/18 01:21:17;;;;;;;5.68;3.00;;;18.40;99.90;;;;;;4899407;29;20441;-83
2023/08/18 01:23:43;;;;;;;4.78;3.40;;;18.40;99.90;;;;;;4890068;29;20416;-84
2023/08/18 01:26:08;;;;;;;5.10;3.20;;;18.00;99.90;;;;;;4881082;29;20401;-84
2023/08/18 01:28:34;;;;;;;4.73;3.07;;;17.70;99.90;;;;;;4881664;29;20431;-84
2023/08/18 01:31:04;;;;;;;3.40;3.10;;;18.00;99.90;;;;;;4887500;29;20500;-86
2023/08/18 01:33:43;;;;;;;4.85;2.72;;;17.60;99.90;;;;;;4936566;29;20433;-86
2023/08/18 01:36:15;;;;;;;4.55;3.15;;;18.60;99.90;;;;;;4940532;29;20420;-85
2023/08/18 01:38:42;;;;;;;4.18;3.28;;;18.60;99.90;;;;;;4939834;29;20433;-85
2023/08/18 01:41:09;;;;;;;4.28;3.17;;;18.10;99.90;;;;;;4919194;29;20643;-83
2023/08/18 01:43:34;;;;;;;6.13;3.40;;;18.20;99.90;;;;;;4879857;29;20392;-84
2023/08/18 01:46:01;;;;;;;4.60;3.20;;;21.00;99.90;;;;;;4879131;29;20435;-83
2023/08/18 01:48:27;;;;;;;5.30;3.37;;;18.90;99.90;;;;;;4888733;29;20397;-84
2023/08/18 01:50:53;;;;;;;3.60;3.20;;;18.10;99.90;;;;;;4891532;29;20400;-83
2023/08/18 01:53:18;;;;;;;5.00;3.30;;;18.60;99.90;;;;;;4897880;29;20431;-83
2023/08/18 01:55:44;;;;;;;4.53;3.60;;;18.90;99.90;;;;;;4880274;29;20814;-83
2023/08/18 01:58:09;;;;;;;5.20;3.10;;;18.70;99.90;;;;;;4876513;29;20397;-83
2023/08/18 02:00:35;;;;;;;5.67;3.77;;;20.40;99.90;;;;;;4878558;29;20477;-84
2023/08/18 02:03:00;;;;;;;5.88;3.50;;;18.20;99.90;;;;;;4884575;29;20884;-84
2023/08/18 02:05:26;;;;;;;3.70;3.30;;;19.40;99.90;;;;;;4895728;29;20415;-84
2023/08/18 02:07:51;;;;;;;3.47;3.17;;;18.30;99.90;;;;;;4898324;29;20491;-84
2023/08/18 02:10:18;;;;;;;5.20;3.47;;;18.70;99.90;;;;;;4879352;29;20465;-84
2023/08/18 02:12:43;;;;;;;4.80;3.20;;;18.70;99.90;;;;;;4878639;29;20846;-84
2023/08/18 02:15:09;;;;;;;4.43;3.90;;;17.70;99.90;;;;;;4880030;29;20400;-84
2023/08/18 02:17:34;;;;;;;4.70;3.30;;;18.80;99.90;;;;;;4876707;29;21115;-84
2023/08/18 02:20:00;;;;;;;4.55;3.42;;;18.10;99.90;;;;;;4891859;29;20438;-84
2023/08/18 02:22:26;;;;;;;6.60;3.20;;;18.20;99.90;;;;;;4878480;29;20416;-84
2023/08/18 02:24:52;;;;;;;7.87;3.80;;;17.80;99.90;;;;;;4876915;29;20419;-84
2023/08/18 02:27:18;;;;;;;6.82;3.45;;;18.40;99.90;;;;;;4877323;29;20870;-84
2023/08/18 02:29:43;;;;;;;5.70;3.20;;;18.10;99.90;;;;;;4877690;29;20393;-84
2023/08/18 02:32:09;;;;;;;5.53;3.20;;;17.70;99.90;;;;;;4890804;29;20426;-84
2023/08/18 02:34:35;;;;;;;3.78;3.30;;;18.00;99.90;;;;;;4882096;29;20416;-83
2023/08/18 02:37:01;;;;;;;4.20;3.10;;;18.20;99.90;;;;;;4880045;29;20400;-84
2023/08/18 02:39:27;;;;;;;5.10;3.55;;;17.50;99.90;;;;;;4881196;29;20411;-83
2023/08/18 02:41:52;;;;;;;3.70;3.30;;;18.00;99.90;;;;;;4881738;29;20411;-84
2023/08/18 02:44:20;;;;;;;8.10;3.57;;;18.10;99.90;;;;;;4892596;29;20494;-84
2023/08/18 02:46:46;;;;;;;5.50;3.63;;;17.60;99.90;;;;;;4899999;29;20449;-85
2023/08/18 02:49:12;;;;;;;4.90;3.50;;;17.70;99.90;;;;;;4885657;29;20954;-84
2023/08/18 02:51:38;;;;;;;6.97;3.70;;;17.70;99.90;;;;;;4881766;29;20413;-83
2023/08/18 02:54:03;;;;;;;5.90;4.00;;;17.60;99.90;;;;;;4881278;29;20416;-83
2023/08/18 02:56:31;;;;;;;7.00;4.10;;;18.00;99.90;;;;;;4881169;29;20400;-84
2023/08/18 02:58:57;;;;;;;4.00;3.60;;;17.80;99.90;;;;;;4894049;29;20417;-84
2023/08/18 03:01:23;;;;;;;5.93;3.73;;;17.10;99.90;;;;;;4899637;29;20395;-83
2023/08/18 03:03:48;;;;;;;4.18;3.50;;;18.60;99.90;;;;;;4899392;29;20482;-83
2023/08/18 03:06:14;;;;;;;5.60;3.50;;;17.30;99.90;;;;;;4892225;29;20496;-83
2023/08/18 03:08:40;;;;;;;5.85;3.78;;;17.80;99.90;;;;;;4879675;29;20785;-83
2023/08/18 03:11:05;;;;;;;3.95;3.60;;;17.80;99.90;;;;;;4882592;29;20783;-83
2023/08/18 03:13:31;;;;;;;4.73;3.97;;;18.20;99.90;;;;;;4879852;29;20905;-83
2023/08/18 03:15:57;;;;;;;4.20;3.80;;;17.80;99.90;;;;;;4885153;29;20502;-82
2023/08/18 03:18:23;;;;;;;5.40;4.10;;;17.30;99.90;;;;;;4900627;29;20454;-83
2023/08/18 03:20:49;;;;;;;4.47;3.50;;;17.60;99.90;;;;;;4901812;29;20422;-83
2023/08/18 03:23:17;;;;;;;6.00;3.63;;;17.60;99.90;;;;;;4899033;29;20970;-83
2023/08/18 03:25:43;;;;;;;6.38;4.20;;;18.40;99.90;;;;;;4882419;29;20499;-83
2023/08/18 03:28:10;;;;;;;6.18;3.92;;;19.80;99.90;;;;;;4880535;29;21003;-83
2023/08/18 03:30:37;;;;;;;4.72;3.72;;;17.60;99.90;;;;;;4881311;29;20897;-83
2023/08/18 03:33:03;;;;;;;4.47;4.00;;;17.70;99.90;;;;;;4880206;29;20409;-83
2023/08/18 03:35:31;;;;;;;5.45;4.10;;;18.00;99.90;;;;;;4894005;29;20543;-83
2023/08/18 03:38:00;;;;;;;4.07;3.78;;;17.40;99.90;;;;;;4884744;29;20423;-83
2023/08/18 03:40:26;;;;;;;5.75;3.33;;;17.80;99.90;;;;;;4880001;29;20404;-83
2023/08/18 03:42:51;;;;;;;4.45;3.83;;;17.40;99.90;;;;;;4881442;29;20920;-83
2023/08/18 03:45:17;;;;;;;4.03;3.63;;;17.50;99.90;;;;;;4885287;29;20401;-83
2023/08/18 03:47:42;;;;;;;4.30;3.50;;;17.20;99.90;;;;;;4895944;29;20407;-83
2023/08/18 03:50:08;;;;;;;6.05;4.30;;;17.20;99.90;;;;;;4900466;29;20402;-83
2023/08/18 03:52:34;;;;;;;6.70;3.70;;;17.80;99.90;;;;;;4887032;29;20419;-83
2023/08/18 03:55:00;;;;;;;5.03;3.90;;;17.30;99.90;;;;;;4881575;29;20407;-83
2023/08/18 03:57:25;;;;;;;5.50;3.47;;;17.70;99.90;;;;;;4899087;29;20391;-83
2023/08/18 03:59:53;;;;;;;7.60;3.53;;;17.20;99.90;;;;;;4898742;29;20411;-83
2023/08/18 04:02:18;;;;;;;5.72;3.63;;;17.90;99.90;;;;;;4901337;29;20415;-83
2023/08/18 04:04:44;;;;;;;5.53;3.70;;;17.30;99.90;;;;;;4912131;29;20397;-83
2023/08/18 04:07:09;;;;;;;5.65;3.60;;;17.90;99.90;;;;;;4911358;29;20480;-83
2023/08/18 04:09:35;;;;;;;5.40;3.70;;;17.70;99.90;;;;;;4900126;29;20403;-83
2023/08/18 04:12:00;;;;;;;5.80;3.53;;;19.00;99.90;;;;;;4903369;29;20429;-84
2023/08/18 04:14:26;;;;;;;4.30;3.80;;;17.50;99.90;;;;;;4906859;29;20405;-84
2023/08/18 04:16:51;;;;;;;6.70;3.97;;;17.80;99.90;;;;;;4906366;29;20406;-83
2023/08/18 04:19:17;;;;;;;5.53;3.90;;;19.60;99.90;;;;;;4907435;29;20920;-83
2023/08/18 04:21:43;;;;;;;4.13;3.40;;;21.30;99.90;;;;;;4908802;29;20778;-83
2023/08/18 04:24:08;;;;;;;6.40;3.90;;;17.80;99.90;;;;;;4904646;29;20403;-84
2023/08/18 04:26:36;;;;;;;5.45;4.00;;;17.50;99.90;;;;;;4927208;29;20397;-84
2023/08/18 04:29:02;;;;;;;5.55;3.90;;;18.00;99.90;;;;;;4928066;29;20416;-84
2023/08/18 04:31:28;;;;;;;4.70;3.80;;;17.90;99.90;;;;;;4927584;29;20399;-84
2023/08/18 04:33:54;;;;;;;5.47;3.73;;;20.00;99.90;;;;;;4918212;29;20500;-84
2023/08/18 04:36:19;;;;;;;4.57;3.80;;;17.50;99.90;;;;;;4910838;29;20982;-84
2023/08/18 04:38:45;;;;;;;5.03;4.10;;;17.50;99.90;;;;;;4924435;23;20438;-82
2023/08/18 04:41:11;;;;;;;4.88;3.38;;;20.00;99.90;;;;;;4907311;29;20451;-83
2023/08/18 04:43:36;;;;;;;5.53;3.50;;;17.50;99.90;;;;;;4909136;29;20922;-83
2023/08/18 04:46:02;;;;;;;3.65;3.28;;;17.80;99.90;;;;;;4908480;29;20455;-83
2023/08/18 04:48:28;;;;;;;4.60;3.70;;;17.60;99.90;;;;;;4900478;29;20409;-83
2023/08/18 04:50:53;;;;;;;5.60;4.50;;;17.60;99.90;;;;;;4877310;29;20418;-83
2023/08/18 04:53:19;;;;;;;5.40;3.35;;;17.70;99.90;;;;;;4869232;29;20425;-83
2023/08/18 04:55:45;;;;;;;5.50;3.50;;;18.90;99.90;;;;;;4870287;29;20425;-83
2023/08/18 04:58:13;;;;;;;5.43;3.33;;;17.90;99.90;;;;;;4869685;29;20413;-83
2023/08/18 05:00:40;;;;;;;4.57;3.80;;;17.60;99.90;;;;;;4869944;29;20419;-83
2023/08/18 05:03:06;;;;;;;5.20;3.70;;;17.50;99.90;;;;;;4868793;29;20405;-83
2023/08/18 05:05:34;;;;;;;5.43;3.72;;;17.50;99.90;;;;;;4868539;29;20474;-83
2023/08/18 05:08:00;;;;;;;5.15;3.70;;;17.50;99.90;;;;;;4878320;29;20401;-82
2023/08/18 05:10:25;;;;;;;5.15;3.70;;;17.80;99.90;;;;;;4889194;29;20447;-83
2023/08/18 05:12:51;;;;;;;4.40;4.00;;;17.80;99.90;;;;;;4888708;29;20563;-83
2023/08/18 05:15:17;;;;;;;4.33;3.90;;;18.90;99.90;;;;;;4886928;29;20909;-83
2023/08/18 05:17:42;;;;;;;4.28;3.85;;;17.90;99.90;;;;;;4889193;29;20796;-83
2023/08/18 05:20:08;;;;;;;4.47;4.07;;;17.80;99.90;;;;;;4889169;29;20455;-82
2023/08/18 05:22:34;;;;;;;7.15;3.83;;;18.00;99.90;;;;;;4870124;29;20401;-83
2023/08/18 05:24:59;;;;;;;5.13;3.50;;;17.90;99.90;;;;;;4868830;29;20394;-82
2023/08/18 05:27:25;;;;;;;8.40;4.20;;;18.30;99.90;;;;;;4868978;29;20405;-83
2023/08/18 05:29:51;;;;;;;5.20;4.10;;;17.50;99.90;;;;;;4874160;29;20413;-83
2023/08/18 05:32:17;;;;;;;6.22;3.88;;;17.50;99.90;;;;;;4885588;29;20500;-83
2023/08/18 05:34:42;;;;;;;5.87;3.70;;;17.90;99.90;;;;;;4880746;29;20422;-83
2023/08/18 05:37:08;;;;;;;4.53;3.60;;;17.40;99.90;;;;;;4870148;29;20425;-82
2023/08/18 05:39:33;;;;;;;4.53;3.90;;;17.80;99.90;;;;;;4868823;29;21085;-83
2023/08/18 05:41:59;;;;;;;5.60;3.80;;;17.80;99.90;;;;;;4868267;29;20782;-83
2023/08/18 05:44:24;;;;;;;4.00;3.63;;;18.40;99.90;;;;;;4874173;29;20412;-83
2023/08/18 05:46:50;;;;;;;7.80;7.00;;;17.70;99.90;;;;;;4886835;29;20508;-82
2023/08/18 05:49:15;;;;;;;5.27;3.60;;;18.30;99.90;;;;;;4870613;29;20410;-83
2023/08/18 05:51:44;;;;;;;5.32;3.75;;;18.20;99.90;;;;;;4867203;29;20439;-83
2023/08/18 05:54:09;;;;;;;4.95;4.00;;;18.50;99.90;;;;;;4875208;29;20409;-82
2023/08/18 05:56:35;;;;;;;5.38;3.70;;;18.20;99.90;;;;;;4885273;29;20412;-83
2023/08/18 05:59:00;;;;;;;6.10;3.40;;;18.70;99.90;;;;;;4886822;29;20408;-83
2023/08/18 06:01:26;;;;;;;4.60;3.80;;;18.50;99.90;;;;;;4887265;29;20413;-82
2023/08/18 06:03:51;;;;;;;5.25;3.80;;;18.30;99.90;;;;;;4879175;29;20466;-83
2023/08/18 06:06:17;;;;;;;4.30;3.90;;;18.70;99.90;;;;;;4879025;29;20447;-83
2023/08/18 06:08:42;;;;;;;4.05;3.72;;;19.10;99.90;;;;;;4884904;29;20392;-83
2023/08/18 06:11:08;;;;;;;6.47;3.73;;;18.50;99.90;;;;;;4886740;29;20396;-83
2023/08/18 06:13:34;;;;;;;5.00;3.70;;;18.50;99.90;;;;;;4889296;29;20412;-83
2023/08/18 06:16:04;;;;;;;5.77;3.90;;;18.50;99.90;;;;;;4887846;29;20412;-84
2023/08/18 06:18:29;;;;;;;5.07;3.80;;;19.00;99.90;;;;;;4888305;29;20400;-84
2023/08/18 06:20:55;;;;;;;4.03;3.30;;;18.60;99.90;;;;;;4877700;29;20437;-84
2023/08/18 06:23:20;;;;;;;6.50;4.28;;;19.20;99.90;;;;;;4869441;29;20405;-84
2023/08/18 06:25:46;;;;;;;5.70;3.80;;;18.80;99.90;;;;;;4870345;29;20967;-84
2023/08/18 06:28:11;;;;;;;3.92;3.50;;;19.30;99.90;;;;;;4864598;29;20901;-82
2023/08/18 06:30:37;;;;;;;5.13;4.00;;;19.00;99.90;;;;;;4871887;29;20451;-82
2023/08/18 06:33:03;;;;;;;6.00;3.83;;;19.20;99.90;;;;;;4882942;29;20503;-82
2023/08/18 06:35:28;;;;;;;6.18;3.33;;;19.60;99.90;;;;;;4883751;29;20408;-82
2023/08/18 06:37:54;;;;;;;6.00;3.80;;;20.30;99.90;;;;;;4884422;29;20400;-82
2023/08/18 06:40:19;;;;;;;6.33;3.97;;;19.40;99.90;;;;;;4881802;29;20418;-81
2023/08/18 06:42:45;;;;;;;5.10;3.80;;;20.50;99.90;;;;;;4880943;29;20943;-82
2023/08/18 06:45:10;;;;;;;4.40;3.80;;;19.90;99.90;;;;;;4866028;29;20579;-80
2023/08/18 06:47:36;;;;;;;6.47;3.50;;;20.10;99.90;;;;;;4862867;29;20828;-79
2023/08/18 06:50:05;;;;;;;4.10;3.40;;;20.00;99.90;;;;;;4864116;29;20419;-80
2023/08/18 06:52:31;;;;;;;7.23;4.10;;;20.00;99.90;;;;;;4863032;29;20786;-80
2023/08/18 06:54:57;;;;;;;5.90;3.50;;;19.80;99.90;;;;;;4876942;29;20405;-80
2023/08/18 06:57:22;;;;;;;3.93;3.63;;;20.10;99.90;;;;;;4863881;29;20767;-80
2023/08/18 06:59:48;;;;;;;5.07;3.40;;;20.20;99.90;;;;;;4878715;29;20400;-80
2023/08/18 07:02:13;;;;;;;3.93;3.50;;;20.00;99.90;;;;;;4882550;29;20897;-81
2023/08/18 07:04:39;;;;;;;4.40;3.90;;;19.90;99.90;;;;;;4881552;29;20488;-82
2023/08/18 07:07:04;;;;;;;5.27;3.50;;;20.00;99.90;;;;;;4879406;29;20419;-82
2023/08/18 07:09:30;;;;;;;6.45;3.67;;;20.00;99.90;;;;;;4864428;29;20399;-82
2023/08/18 07:11:55;;;;;;;3.90;3.50;;;20.10;99.90;;;;;;4884578;29;20417;-82
2023/08/18 07:14:21;;;;;;;5.20;3.28;;;20.80;99.90;;;;;;4894345;29;20913;-81
2023/08/18 07:16:46;;;;;;;5.37;3.80;;;20.80;99.90;;;;;;4883581;29;20428;-80
2023/08/18 07:19:12;;;;;;;4.88;3.10;;;21.50;99.90;;;;;;4882247;29;20408;-80
2023/08/18 07:21:37;;;;;;;8.40;3.90;;;20.40;99.90;;;;;;4881425;29;20757;-80
2023/08/18 07:24:03;;;;;;;4.78;3.42;;;21.00;99.90;;;;;;4875789;29;20397;-81
2023/08/18 07:26:29;;;;;;;4.80;3.40;;;21.10;99.90;;;;;;4883946;29;20396;-83
2023/08/18 07:28:55;;;;;;;4.25;3.08;;;20.90;99.90;;;;;;4880545;29;20413;-82
2023/08/18 07:31:21;;;;;;;5.68;3.08;;;21.20;99.90;;;;;;4877391;29;20404;-83
2023/08/18 07:33:47;;;;;;;4.90;2.70;;;20.90;99.90;;;;;;4881787;29;20480;-82
2023/08/18 07:36:13;;;;;;;3.40;3.10;;;21.70;99.90;;;;;;4881068;29;20405;-82
2023/08/18 07:38:38;;;;;;;3.80;3.22;;;21.20;99.90;;;;;;4882928;29;20400;-82
2023/08/18 07:41:04;;;;;;;7.10;3.07;;;21.60;99.90;;;;;;4863266;29;20445;-82
2023/08/18 07:43:29;;;;;;;3.90;3.05;;;21.80;99.90;;;;;;4865659;29;20394;-82
2023/08/18 07:45:58;;;;;;;4.27;2.70;;;21.60;99.90;;;;;;4865149;29;20418;-82
2023/08/18 07:48:23;;;;;;;6.05;3.20;;;21.30;99.90;;;;;;4864211;29;20501;-82
2023/08/18 07:50:49;;;;;;;3.23;2.73;;;22.00;99.90;;;;;;4862943;29;20503;-83
2023/08/18 07:53:15;;;;;;;8.00;3.20;;;23.30;99.90;;;;;;4863964;29;20421;-80
2023/08/18 07:55:40;;;;;;;3.33;2.75;;;21.60;99.90;;;;;;4862832;29;20399;-80
2023/08/18 07:58:06;;;;;;;5.70;2.80;;;22.00;99.90;;;;;;4875325;29;20409;-81
2023/08/18 08:00:32;;;;;;;5.65;3.15;;;23.80;99.90;;;;;;4881618;29;21098;-80
2023/08/18 08:02:58;;;;;;;4.65;3.38;;;22.40;99.90;;;;;;4881167;29;20400;-80
2023/08/18 08:05:24;;;;;;;4.82;3.20;;;22.20;1.00;;;;;;4871209;29;20410;-81
2023/08/18 08:07:50;;;;;;;4.33;3.63;;;23.10;1.00;;;;;;4877966;29;20408;-81
2023/08/18 08:10:16;;;;;;;6.43;4.10;;;23.10;99.90;;;;;;4879658;29;20428;-81
2023/08/18 08:12:42;;;;;;;4.20;3.60;;;22.90;99.90;;;;;;4878980;29;20436;-81
2023/08/18 08:15:10;;;;;;;4.60;3.83;;;23.10;99.90;;;;;;4878664;29;20502;-81
2023/08/18 08:17:36;;;;;;;4.22;3.40;;;23.70;92.90;;;;;;4880129;29;20405;-81
2023/08/18 08:20:17;;;;;;;3.88;3.47;;;24.30;99.90;;;;;;4878547;29;20412;-81
2023/08/18 08:22:45;;;;;;;6.57;4.50;;;24.00;3.30;;;;;;4878801;29;20409;-81
2023/08/18 08:25:12;;;;;;;5.78;4.28;;;24.60;1.00;;;;;;4880387;29;20424;-81
2023/08/18 08:27:38;;;;;;;6.32;4.00;;;23.90;1.00;;;;;;4882785;29;20485;-82
2023/08/18 08:30:06;;;;;;;5.38;4.07;;;23.70;1.00;;;;;;4883095;29;20475;-82
2023/08/18 08:32:31;;;;;;;6.50;3.40;;;24.10;1.00;;;;;;4879654;29;20454;-82
2023/08/18 08:34:57;;;;;;;5.03;3.50;;;23.80;1.00;;;;;;4876123;29;20419;-82
2023/08/18 08:37:22;;;;;;;4.70;3.10;;;23.70;1.00;;;;;;4874473;29;20412;-82
2023/08/18 08:39:48;;;;;;;4.47;3.10;;;24.00;1.00;;;;;;4877735;29;20409;-82
2023/08/18 08:42:13;;;;;;;6.33;3.50;;;24.20;1.00;;;;;;4879325;29;20503;-82
2023/08/18 08:44:39;;;;;;;4.78;3.00;;;23.70;1.00;;;;;;4881877;29;20401;-82
2023/08/18 08:47:05;;;;;;;4.57;3.58;;;23.80;1.00;;;;;;4876338;29;20412;-82
2023/08/18 08:49:32;;;;;;;3.83;3.30;;;24.30;1.00;;;;;;4879897;29;20537;-82
2023/08/18 08:52:09;;;;;;;4.17;3.30;;;24.10;5.60;;;;;;4879046;29;20401;-82
2023/08/18 08:54:39;;;;;;;5.57;3.25;;;24.40;1.00;;;;;;4877840;29;20408;-82
2023/08/18 08:57:07;;;;;;;6.20;3.43;;;24.60;46.00;;;;;;4878588;29;21116;-82
2023/08/18 08:59:33;;;;;;;4.95;3.58;;;24.80;35.00;;;;;;4878851;29;20401;-82
2023/08/18 09:01:59;;;;;;;4.07;2.85;;;25.00;99.90;;;;;;4880197;29;20397;-82
2023/08/18 09:04:24;;;;;;;6.40;3.70;;;24.50;25.10;;;;;;4879622;29;20420;-82
2023/08/18 09:06:50;;;;;;;5.67;3.23;;;25.10;1.00;;;;;;4879501;29;20396;-82
2023/08/18 09:09:18;;;;;;;4.00;3.35;;;25.20;26.50;;;;;;4880307;29;20401;-82
2023/08/18 09:11:47;;;;;;;3.90;3.50;;;25.30;1.00;;;;;;4877537;29;20407;-82
2023/08/18 09:14:14;;;;;;;3.90;3.50;;;25.00;92.10;;;;;;4878179;29;20516;-81
2023/08/18 09:16:39;;;;;;;7.72;3.75;;;26.70;1.00;;;;;;4887559;29;20406;-81
2023/08/18 09:19:05;;;;;;;3.78;3.15;;;25.30;1.00;;;;;;4890300;29;20526;-82
2023/08/18 09:21:33;;;;;;;6.13;3.40;;;25.20;1.00;;;;;;4891612;29;20408;-81
2023/08/18 09:23:59;;;;;;;4.88;3.50;;;24.80;1.00;;;;;;4889224;29;20948;-81
2023/08/18 09:26:28;;;;;;;4.70;3.30;;;25.00;17.20;;;;;;4881455;29;20485;-81
2023/08/18 09:28:53;;;;;;;4.55;3.60;;;26.60;30.20;;;;;;4881064;29;20404;-82
2023/08/18 09:31:19;;;;;;;6.70;4.00;;;25.10;52.50;;;;;;4881045;29;20397;-83
2023/08/18 09:33:45;;;;;;;3.90;3.50;;;25.60;1.00;;;;;;4881489;29;20539;-82
2023/08/18 09:36:14;;;;;;;4.47;3.70;;;25.90;1.00;;;;;;4881086;29;20407;-82
2023/08/18 09:38:41;;;;;;;5.80;3.70;;;27.30;1.00;;;;;;4880862;29;20416;-82
2023/08/18 09:41:07;;;;;;;4.45;3.80;;;26.10;38.50;;;;;;4878465;29;20436;-82
2023/08/18 09:43:33;;;;;;;5.53;3.40;;;27.30;1.00;;;;;;4881875;29;20424;-82
2023/08/18 09:46:03;;;;;;;6.97;4.10;;;26.20;25.50;;;;;;4878995;29;20539;-82
2023/08/18 09:48:34;;;;;;;6.47;3.80;;;26.70;1.00;;;;;;4880254;29;20420;-82
2023/08/18 09:51:00;;;;;;;4.10;3.60;;;26.50;1.00;;;;;;4880540;29;20487;-82
2023/08/18 09:53:30;;;;;;;4.30;3.83;;;28.00;55.60;;;;;;4882639;29;20438;-82
2023/08/18 09:56:08;;;;;;;7.63;4.10;;;26.40;1.00;;;;;;4880324;29;20497;-81
2023/08/18 09:58:55;;;;;;;8.20;4.20;;;27.00;1.00;;;;;;4865725;29;20417;-81
2023/08/18 10:01:23;;;;;;;5.40;4.20;;;27.00;1.00;;;;;;4878948;29;20395;-80
2023/08/18 10:03:49;;;;;;;5.57;3.90;;;27.40;33.20;;;;;;4887188;29;20778;-82
2023/08/18 10:06:17;;;;;;;4.95;4.22;;;27.10;1.00;;;;;;4881181;29;20814;-82
2023/08/18 10:08:42;;;;;;;6.68;4.15;;;26.60;99.90;;;;;;4881613;29;20413;-81
2023/08/18 10:11:09;;;;;;;5.68;4.22;;;28.40;83.60;;;;;;4884013;29;20405;-81
2023/08/18 10:13:37;;;;;;;5.80;3.97;;;27.50;62.70;;;;;;4883141;29;20439;-81
2023/08/18 10:16:05;;;;;;;5.55;4.03;;;27.40;99.90;;;;;;4888023;29;20420;-81
2023/08/18 10:18:31;;;;;;;5.90;4.20;;;27.20;10.20;;;;;;4887205;29;20411;-80
2023/08/18 10:20:57;;;;;;;6.22;4.70;;;27.30;7.70;;;;;;4883871;29;20428;-80
2023/08/18 10:23:24;;;;;;;5.45;4.20;;;28.30;11.40;;;;;;4882795;29;20417;-80
2023/08/18 10:25:51;;;;;;;7.50;5.82;;;27.60;1.00;;;;;;4892661;29;20428;-81
2023/08/18 10:28:18;;;;;;;5.20;4.70;;;28.10;27.00;;;;;;4894600;29;20436;-81
2023/08/18 10:30:51;;;;;;;5.97;4.30;;;28.00;1.00;;;;;;4888292;29;20422;-81
2023/08/18 10:33:28;;;;;;;4.80;4.32;;;27.70;2.20;;;;;;4892563;29;20575;-80
2023/08/18 10:35:58;;;;;;;6.03;4.40;;;28.00;99.90;;;;;;4901862;29;20407;-80
2023/08/18 10:38:28;;;;;;;4.40;4.00;;;28.30;99.90;;;;;;4925959;23;20456;-77
2023/08/18 10:40:53;;;;;;;6.00;4.40;;;28.10;1.00;;;;;;4915480;29;20411;-77
2023/08/18 10:43:19;;;;;;;5.00;4.50;;;28.90;1.00;;;;;;4917589;29;20785;-77
2023/08/18 10:45:50;;;;;;;7.70;4.75;;;28.00;29.60;;;;;;4921700;29;20457;-78
2023/08/18 10:48:16;;;;;;;4.93;4.40;;;28.20;1.00;;;;;;4920465;29;20793;-78
2023/08/18 10:50:46;;;;;;;5.73;4.40;;;28.10;1.00;;;;;;4912865;29;20403;-78
2023/08/18 10:53:13;;;;;;;8.18;4.65;;;29.30;1.00;;;;;;4907820;29;20482;-77
2023/08/18 10:55:39;;;;;;;5.75;4.70;;;28.60;1.00;;;;;;4909198;29;20395;-78
2023/08/18 10:58:05;;;;;;;4.60;4.20;;;29.00;1.00;;;;;;4912397;29;20435;-77
2023/08/18 11:00:36;;;;;;;4.60;4.20;;;28.60;1.00;;;;;;4920559;29;20448;-78
2023/08/18 11:03:03;;;;;;;5.65;3.78;;;29.00;15.10;;;;;;4911275;29;20503;-77
2023/08/18 11:05:32;;;;;;;5.93;4.10;;;29.90;50.50;;;;;;4910330;29;20413;-78
2023/08/18 11:07:59;;;;;;;4.70;4.20;;;29.70;1.00;;;;;;4909963;29;20779;-78
2023/08/18 11:10:25;;;;;;;4.85;3.75;;;29.50;1.00;;;;;;4907379;29;20419;-78
2023/08/18 11:12:53;;;;;;;5.30;3.30;;;30.30;1.00;;;;;;4908959;29;20918;-77
2023/08/18 11:15:20;;;;;;;4.47;2.97;;;29.70;1.00;;;;;;4907279;29;20407;-78
2023/08/18 11:17:46;;;;;;;3.53;3.22;;;30.00;1.00;;;;;;4912161;29;20434;-78
2023/08/18 11:20:13;;;;;;;4.43;3.65;;;29.60;1.00;;;;;;4909534;29;20393;-78
2023/08/18 11:22:40;;;;;;;3.70;3.10;;;31.30;1.00;;;;;;4907879;29;20467;-78
2023/08/18 11:25:07;;;;;;;5.30;3.97;;;31.60;1.00;;;;;;4907440;29;20936;-78
2023/08/18 11:27:33;;;;;;;2.92;2.72;;;30.40;1.00;;;;;;4909952;29;21206;-77
2023/08/18 11:30:00;;;;;;;4.60;3.40;;;31.20;1.00;;;;;;4905441;29;20429;-78
2023/08/18 11:32:26;;;;;;;5.57;3.90;;;30.80;1.00;;;;;;4897544;29;20787;-78
2023/08/18 11:34:52;;;;;;;5.07;3.67;;;31.20;1.00;;;;;;4903733;29;20891;-80
2023/08/18 11:37:24;;;;;;;4.63;3.47;;;31.80;1.00;;;;;;4897633;29;20415;-76
2023/08/18 11:39:50;;;;;;;4.50;3.45;;;31.00;1.00;;;;;;4902573;29;20416;-76
2023/08/18 11:42:17;;;;;;;3.50;2.88;;;32.20;1.00;;;;;;4901299;29;20899;-77
2023/08/18 11:44:43;;;;;;;4.50;2.80;;;32.30;1.00;;;;;;4905098;29;20402;-78
2023/08/18 11:47:09;;;;;;;3.70;2.35;;;32.80;1.00;;;;;;4906951;29;20439;-78
2023/08/18 11:49:35;;;;;;;3.77;2.40;;;33.60;1.00;;;;;;4905484;29;20411;-78
2023/08/18 11:52:05;;;;;;;4.75;2.67;;;33.60;1.00;;;;;;4905751;29;20484;-80
2023/08/18 11:54:35;;;;;;;3.60;2.42;;;33.60;1.00;;;;;;4906508;29;20396;-79
2023/08/18 11:57:05;;;;;;;2.90;2.60;;;34.10;1.00;;;;;;4910155;29;20394;-79
2023/08/18 11:59:32;;;;;;;3.20;2.20;;;33.90;1.00;;;;;;4909913;29;20765;-79
2023/08/18 12:02:04;;;;;;;4.32;2.20;;;34.40;1.00;;;;;;4909012;29;20419;-79
2023/08/18 12:04:31;;;;;;;4.07;2.60;;;34.00;1.00;;;;;;4908566;29;20406;-79
2023/08/18 12:06:58;;;;;;;2.73;2.43;;;34.20;1.00;;;;;;4902829;29;20417;-79
2023/08/18 12:09:24;;;;;;;4.30;3.00;;;33.70;1.00;;;;;;4906053;29;20772;-78
2023/08/18 12:11:51;;;;;;;3.45;2.80;;;33.40;1.00;;;;;;4907949;29;20443;-79
2023/08/18 12:14:18;;;;;;;3.88;2.40;;;33.60;1.00;;;;;;4908384;29;20482;-78
2023/08/18 12:16:44;;;;;;;3.70;2.80;;;33.10;1.00;;;;;;4908535;29;20406;-79
2023/08/18 12:19:11;;;;;;;4.10;2.80;;;33.70;1.00;;;;;;4908459;29;20399;-79
2023/08/18 12:21:37;;;;;;;3.33;3.03;;;33.20;1.00;;;;;;4908768;29;20411;-79
2023/08/18 12:24:04;;;;;;;3.40;3.10;;;33.20;1.00;;;;;;4907084;29;20423;-79
2023/08/18 12:26:31;;;;;;;3.08;2.78;;;32.90;1.00;;;;;;4909060;29;20406;-78
2023/08/18 12:28:56;;;;;;;3.15;2.90;;;33.30;1.00;;;;;;4909948;29;20771;-77
2023/08/18 12:31:24;;;;;;;2.97;2.67;;;33.00;1.00;;;;;;4907765;29;20407;-78
2023/08/18 12:33:56;;;;;;;3.80;3.40;;;32.60;1.00;;;;;;4908756;29;20482;-78
2023/08/18 12:36:22;;;;;;;4.32;3.10;;;32.50;1.00;;;;;;4904522;29;20538;-78
2023/08/18 12:38:47;;;;;;;3.40;2.90;;;33.00;1.00;;;;;;4908374;29;20434;-79
2023/08/18 12:41:14;;;;;;;3.33;3.03;;;33.20;1.00;;;;;;4907105;29;20951;-79
2023/08/18 12:43:40;;;;;;;4.47;3.08;;;32.60;1.00;;;;;;4909560;29;20403;-78
2023/08/18 12:46:06;;;;;;;3.65;3.33;;;33.60;1.00;;;;;;4906972;29;20410;-79